Time;durP1;ratioP1;P1;durP2;ratioP2;P2;SDS_P1;SDS_P2;PMS_P1;PMS_P2;Temp;Humidity;BMP_temperature;BMP_pressure;BME280_temperature;BME280_humidity;BME280_pressure;Samples;Min_cycle;Max_cycle;Signal;HPM_P1;HPM_P2
2023/01/13 00:06:35;;;;;;;1999.90;999.90;;;11.90;99.90;;;;;;6634254;88;20775;-77
2023/01/13 00:16:37;;;;;;;1999.90;999.90;;;11.90;99.90;;;;;;6636304;88;20342;-77
2023/01/13 00:26:37;;;;;;;1999.90;999.90;;;11.80;99.90;;;;;;6638758;89;21002;-77
2023/01/13 00:36:38;;;;;;;1999.90;999.90;;;11.80;99.90;;;;;;6637389;88;20325;-77
2023/01/13 00:46:38;;;;;;;1999.90;999.90;;;11.70;99.90;;;;;;6698275;76;20245;-75
2023/01/13 00:56:39;;;;;;;1999.90;999.90;;;11.70;99.90;;;;;;6718945;88;20711;-75
2023/01/13 01:06:39;;;;;;;1999.90;999.90;;;11.70;99.90;;;;;;6708436;88;20265;-73
2023/01/13 01:16:41;;;;;;;1999.90;999.90;;;11.70;99.90;;;;;;6708403;88;20190;-75
2023/01/13 01:26:41;;;;;;;1999.90;999.90;;;11.60;99.90;;;;;;6706994;88;20179;-75
2023/01/13 01:36:42;;;;;;;1999.90;999.90;;;11.40;99.90;;;;;;6703876;88;20198;-74
2023/01/13 01:46:43;;;;;;;1999.90;999.90;;;10.30;99.90;;;;;;6707904;88;20239;-75
2023/01/13 01:56:44;;;;;;;1999.90;999.90;;;9.60;99.90;;;;;;6713475;88;20201;-74
2023/01/13 02:06:46;;;;;;;1999.90;999.90;;;9.80;99.90;;;;;;6709385;88;20321;-75
2023/01/13 02:17:16;;;;;;;1999.90;999.90;;;9.80;99.90;;;;;;6706909;88;20661;-75
2023/01/13 02:27:52;;;;;;;1999.90;999.90;;;9.70;99.90;;;;;;6707784;88;20755;-74
2023/01/13 02:37:56;;;;;;;1999.90;999.90;;;9.40;99.90;;;;;;6714429;88;20202;-75
2023/01/13 02:47:58;;;;;;;1999.90;999.90;;;9.40;99.90;;;;;;6718165;88;20226;-75
2023/01/13 02:58:02;;;;;;;1999.90;999.90;;;9.30;99.90;;;;;;6704796;88;20277;-76
2023/01/13 03:08:38;;;;;;;1999.90;999.90;;;9.30;99.90;;;;;;6703628;88;20206;-74
2023/01/13 03:19:08;;;;;;;1999.90;999.90;;;9.30;99.90;;;;;;6705642;88;20179;-75
2023/01/13 03:29:22;;;;;;;1999.90;999.90;;;9.20;99.90;;;;;;6704592;88;20705;-75
2023/01/13 03:39:30;;;;;;;1999.90;999.90;;;9.30;99.90;;;;;;6702678;88;20220;-75
2023/01/13 03:49:56;;;;;;;1999.90;999.90;;;9.20;99.90;;;;;;6706177;88;20225;-74
2023/01/13 04:00:00;;;;;;;1999.90;999.90;;;9.30;99.90;;;;;;6703579;88;20229;-75
2023/01/13 04:10:06;;;;;;;1999.90;999.90;;;9.40;99.90;;;;;;6700112;88;20762;-75
2023/01/13 04:20:08;;;;;;;1999.90;999.90;;;9.30;99.90;;;;;;6708467;88;20751;-75
2023/01/13 04:30:09;;;;;;;1999.90;999.90;;;9.40;99.90;;;;;;6707492;88;20604;-75
2023/01/13 04:40:10;;;;;;;1999.90;999.90;;;9.20;99.90;;;;;;6711488;88;20678;-75
2023/01/13 04:50:10;;;;;;;1999.90;999.90;;;9.10;99.90;;;;;;6710505;88;20200;-75
2023/01/13 05:00:13;;;;;;;1999.90;999.90;;;9.20;99.90;;;;;;6709784;88;20668;-75
2023/01/13 05:10:14;;;;;;;1999.90;999.90;;;9.10;99.90;;;;;;6709606;88;20206;-76
2023/01/13 05:20:14;;;;;;;1999.90;999.90;;;9.10;99.90;;;;;;6706283;88;20346;-76
2023/01/13 05:30:16;;;;;;;1999.90;999.90;;;8.90;99.90;;;;;;6710604;88;20231;-75
2023/01/13 05:50:37;;;;;;;1999.90;999.90;;;8.60;99.90;;;;;;6704531;88;20324;-76
2023/01/13 06:00:37;;;;;;;1999.90;999.90;;;8.60;99.90;;;;;;6704762;88;20345;-75
2023/01/13 06:10:38;;;;;;;1999.90;999.90;;;8.60;99.90;;;;;;6702175;88;20315;-75
2023/01/13 06:20:38;;;;;;;1999.90;999.90;;;8.60;99.90;;;;;;6702413;88;20211;-74
2023/01/13 06:30:44;;;;;;;1999.90;999.90;;;8.60;99.90;;;;;;6706790;88;20727;-73
2023/01/13 06:40:45;;;;;;;1999.90;999.90;;;8.60;99.90;;;;;;6697403;77;20199;-75
2023/01/13 06:50:45;;;;;;;1999.90;999.90;;;8.60;99.90;;;;;;6643907;88;20664;-75
2023/01/13 07:00:50;;;;;;;1999.90;999.90;;;8.70;99.90;;;;;;6629833;88;20717;-74
2023/01/13 07:10:51;;;;;;;1999.90;999.90;;;8.70;99.90;;;;;;6627077;89;20226;-74
2023/01/13 07:21:00;;;;;;;1999.90;999.90;;;8.80;99.90;;;;;;6626646;88;20736;-75
2023/01/13 07:31:00;;;;;;;1999.90;999.90;;;9.00;99.90;;;;;;6628734;88;20213;-75
2023/01/13 07:51:20;;;;;;;1999.90;999.90;;;9.00;99.90;;;;;;6630471;88;20607;-75
2023/01/13 08:01:21;;;;;;;1999.90;999.90;;;9.00;99.90;;;;;;6633601;88;20336;-76
2023/01/13 08:11:22;;;;;;;1999.90;999.90;;;8.40;99.90;;;;;;6627030;88;20200;-75
2023/01/13 08:21:22;;;;;;;1999.90;999.90;;;7.80;99.90;;;;;;6628956;88;20307;-76
2023/01/13 08:31:23;;;;;;;1999.90;999.90;;;7.70;99.90;;;;;;6631659;89;20209;-76
2023/01/13 08:51:42;;;;;;;1999.90;999.90;;;7.70;99.90;;;;;;6628759;89;20165;-76
2023/01/13 09:01:44;;;;;;;1999.90;999.90;;;7.90;99.90;;;;;;6626985;88;20643;-76
2023/01/13 09:22:08;;;;;;;1999.90;999.90;;;9.10;99.90;;;;;;6632871;89;20361;-74
2023/01/13 09:32:12;;;;;;;1999.90;999.90;;;9.70;99.90;;;;;;6633069;89;20226;-74
2023/01/13 09:52:59;;;;;;;1999.90;999.90;;;10.40;99.90;;;;;;6632293;88;20189;-74
2023/01/13 10:03:16;;;;;;;1999.90;999.90;;;10.40;99.90;;;;;;6630271;88;20252;-75
2023/01/13 10:13:21;;;;;;;1999.90;999.90;;;10.70;99.90;;;;;;6632553;89;20247;-76
2023/01/13 10:23:46;;;;;;;1999.90;999.90;;;10.80;99.90;;;;;;6634901;88;20234;-75
2023/01/13 10:33:46;;;;;;;1999.90;999.90;;;11.10;99.90;;;;;;6637751;88;20322;-75
2023/01/13 10:44:00;;;;;;;1999.90;999.90;;;11.80;99.90;;;;;;6635030;88;20205;-75
2023/01/13 10:54:16;;;;;;;1999.90;999.90;;;11.70;99.90;;;;;;6630613;89;20280;-75
2023/01/13 11:04:30;;;;;;;1999.90;999.90;;;11.00;99.90;;;;;;6629897;89;20209;-76
2023/01/13 11:14:42;;;;;;;1999.90;999.90;;;11.00;99.90;;;;;;6635657;88;20319;-75
2023/01/13 11:25:00;;;;;;;1999.90;999.90;;;11.20;99.90;;;;;;6629336;89;20205;-74
2023/01/13 11:35:08;;;;;;;1999.90;999.90;;;11.20;99.90;;;;;;6627440;89;20700;-75
2023/01/13 11:45:35;;;;;;;1999.90;999.90;;;11.20;99.90;;;;;;6629085;89;20189;-75
2023/01/13 11:55:50;;;;;;;1999.90;999.90;;;11.60;99.90;;;;;;6632617;88;20197;-75
2023/01/13 12:06:09;;;;;;;1999.90;999.90;;;11.30;99.90;;;;;;6631943;89;20815;-76
2023/01/13 12:16:29;;;;;;;1999.90;999.90;;;10.90;99.90;;;;;;6628253;89;20210;-75
2023/01/13 12:26:34;;;;;;;1999.90;999.90;;;9.70;99.90;;;;;;6631296;88;20192;-74
2023/01/13 12:36:59;;;;;;;1999.90;999.90;;;9.80;99.90;;;;;;6632213;89;20212;-75
2023/01/13 12:47:01;;;;;;;1999.90;999.90;;;9.90;99.90;;;;;;6630230;89;20552;-75
2023/01/13 12:57:20;;;;;;;1999.90;999.90;;;10.00;99.90;;;;;;6629431;88;20723;-75
2023/01/13 13:07:25;;;;;;;1999.90;999.90;;;10.30;99.90;;;;;;6628553;89;20662;-76
2023/01/13 13:17:28;;;;;;;1999.90;999.90;;;10.30;99.90;;;;;;6629886;88;20238;-76
2023/01/13 13:27:56;;;;;;;1999.90;999.90;;;10.40;99.90;;;;;;6628033;89;20589;-76
2023/01/13 13:48:32;;;;;;;1999.90;999.90;;;10.10;99.90;;;;;;6630717;89;20613;-77
2023/01/13 13:58:35;;;;;;;1999.90;999.90;;;10.10;99.90;;;;;;6629853;89;20549;-76
2023/01/13 14:08:38;;;;;;;1999.90;999.90;;;10.10;99.90;;;;;;6632307;89;20197;-76
2023/01/13 14:18:46;;;;;;;1999.90;999.90;;;10.00;99.90;;;;;;6631199;88;20923;-76
2023/01/13 14:28:47;;;;;;;1999.90;999.90;;;10.10;99.90;;;;;;6627721;88;20234;-76
2023/01/13 14:39:01;;;;;;;1999.90;999.90;;;9.90;99.90;;;;;;6631300;89;20614;-76
2023/01/13 14:49:02;;;;;;;1999.90;999.90;;;9.40;99.90;;;;;;6629947;88;20208;-76
2023/01/13 14:59:39;;;;;;;1999.90;999.90;;;8.60;99.90;;;;;;6631013;89;20664;-77
2023/01/13 15:09:41;;;;;;;1999.90;999.90;;;8.40;99.90;;;;;;6628323;88;20797;-77
2023/01/13 15:19:41;;;;;;;1999.90;999.90;;;8.40;99.90;;;;;;6630746;89;20201;-76
2023/01/13 15:29:42;;;;;;;1999.90;999.90;;;8.50;99.90;;;;;;6626246;89;20737;-76
2023/01/13 15:39:43;;;;;;;1999.90;999.90;;;8.50;99.90;;;;;;6629031;89;20233;-76
2023/01/13 15:49:45;;;;;;;1999.90;999.90;;;8.50;99.90;;;;;;6625996;88;20299;-76
2023/01/13 15:59:45;;;;;;;1999.90;999.90;;;8.60;99.90;;;;;;6627392;88;20327;-76
2023/01/13 16:09:46;;;;;;;1999.90;999.90;;;8.70;99.90;;;;;;6628796;89;20212;-76
2023/01/13 16:19:47;;;;;;;1999.90;999.90;;;8.70;99.90;;;;;;6630004;89;20177;-77
2023/01/13 16:29:49;;;;;;;1999.90;999.90;;;8.90;99.90;;;;;;6637443;88;20181;-76
2023/01/13 16:39:50;;;;;;;1999.90;999.90;;;8.70;99.90;;;;;;6630630;89;20229;-76
2023/01/13 16:49:51;;;;;;;1999.90;999.90;;;8.10;99.90;;;;;;6628604;88;20233;-76
2023/01/13 16:59:51;;;;;;;1999.90;999.90;;;8.00;99.90;;;;;;6624830;89;20201;-76
2023/01/13 17:09:52;;;;;;;1999.90;999.90;;;8.00;99.90;;;;;;6624593;89;20728;-76
2023/01/13 17:19:53;;;;;;;1999.90;999.90;;;8.10;99.90;;;;;;6627114;88;20228;-77
2023/01/13 17:29:53;;;;;;;1999.90;999.90;;;8.40;99.90;;;;;;6628180;88;20273;-76
2023/01/13 17:39:54;;;;;;;1999.90;999.90;;;8.50;99.90;;;;;;6631760;89;20761;-77
2023/01/13 17:49:54;;;;;;;1999.90;999.90;;;8.40;99.90;;;;;;6639981;88;20539;-77
2023/01/13 17:59:57;;;;;;;1999.90;999.90;;;8.40;99.90;;;;;;6632903;89;20953;-76
2023/01/13 18:09:57;;;;;;;1999.90;999.90;;;8.20;99.90;;;;;;6632047;88;20205;-77
2023/01/13 18:30:17;;;;;;;1999.90;999.90;;;8.30;99.90;;;;;;6633771;88;20209;-77
2023/01/13 18:40:18;;;;;;;1999.90;999.90;;;8.30;99.90;;;;;;6637926;88;20379;-76
2023/01/13 18:50:18;;;;;;;1999.90;999.90;;;8.40;99.90;;;;;;6636421;88;20323;-77
2023/01/13 19:00:20;;;;;;;1999.90;999.90;;;8.50;99.90;;;;;;6638548;88;20178;-78
2023/01/13 19:10:22;;;;;;;1999.90;999.90;;;8.50;99.90;;;;;;6634961;88;20628;-77
2023/01/13 19:20:23;;;;;;;1999.90;999.90;;;8.40;99.90;;;;;;6630189;89;20637;-76
2023/01/13 19:30:23;;;;;;;1999.90;999.90;;;8.50;99.90;;;;;;6633631;88;20241;-79
2023/01/13 19:40:24;;;;;;;1999.90;999.90;;;8.50;99.90;;;;;;6641129;89;20186;-78
2023/01/13 19:50:24;;;;;;;1999.90;999.90;;;8.50;99.90;;;;;;6640223;88;20568;-79
2023/01/13 20:00:25;;;;;;;1999.90;999.90;;;8.50;99.90;;;;;;6639487;89;20519;-78
2023/01/13 20:10:29;;;;;;;1999.90;999.90;;;8.50;99.90;;;;;;6634203;88;20220;-78
2023/01/13 20:20:29;;;;;;;1999.90;999.90;;;8.50;99.90;;;;;;6630233;89;20177;-78
2023/01/13 20:30:30;;;;;;;1999.90;999.90;;;8.60;99.90;;;;;;6637477;88;20198;-77
2023/01/13 20:40:30;;;;;;;1999.90;999.90;;;8.70;99.90;;;;;;6640704;88;20296;-77
2023/01/13 20:50:31;;;;;;;1999.90;999.90;;;8.60;99.90;;;;;;6630487;89;21013;-77
2023/01/13 21:00:31;;;;;;;1999.90;999.90;;;8.40;99.90;;;;;;6634411;89;20552;-77
2023/01/13 21:10:32;;;;;;;1999.90;999.90;;;8.40;99.90;;;;;;6632462;89;20193;-77
2023/01/13 21:20:34;;;;;;;1999.90;999.90;;;8.50;99.90;;;;;;6640595;88;20240;-77
2023/01/13 21:30:37;;;;;;;1999.90;999.90;;;8.60;99.90;;;;;;6649008;89;20212;-76
2023/01/13 21:40:37;;;;;;;1999.90;999.90;;;8.50;99.90;;;;;;6634234;88;20192;-77
2023/01/13 21:50:38;;;;;;;1999.90;999.90;;;8.60;99.90;;;;;;6652709;88;20700;-79
2023/01/13 22:00:41;;;;;;;1999.90;999.90;;;8.70;99.90;;;;;;6634966;89;20189;-76
2023/01/13 22:10:58;;;;;;;1999.90;999.90;;;8.90;99.90;;;;;;6633805;89;20990;-76
2023/01/13 22:21:00;;;;;;;1999.90;999.90;;;8.90;99.90;;;;;;6631355;89;20204;-77
2023/01/13 22:31:00;;;;;;;1999.90;999.90;;;8.80;99.90;;;;;;6636407;89;20685;-78
2023/01/13 22:41:03;;;;;;;1999.90;999.90;;;8.80;99.90;;;;;;6639182;88;20269;-76
2023/01/13 22:51:09;;;;;;;1999.90;999.90;;;8.80;99.90;;;;;;6633905;88;20319;-76
2023/01/13 23:01:15;;;;;;;1999.90;999.90;;;8.70;99.90;;;;;;6637179;88;20248;-77
2023/01/13 23:11:18;;;;;;;1999.90;999.90;;;8.40;99.90;;;;;;6637662;88;20197;-76
2023/01/13 23:21:25;;;;;;;1999.90;999.90;;;8.20;99.90;;;;;;6639111;89;20206;-77
2023/01/13 23:31:25;;;;;;;1999.90;999.90;;;8.10;99.90;;;;;;6633200;88;20199;-77
2023/01/13 23:41:27;;;;;;;1999.90;999.90;;;8.00;99.90;;;;;;6633681;89;20181;-77
2023/01/13 23:51:28;;;;;;;1999.90;999.90;;;7.90;99.90;;;;;;6639317;89;20214;-76
